Time;durP1;ratioP1;P1;durP2;ratioP2;P2;SDS_P1;SDS_P2;PMS_P1;PMS_P2;Temp;Humidity;BMP_temperature;BMP_pressure;BME280_temperature;BME280_humidity;BME280_pressure;Samples;Min_cycle;Max_cycle;Signal;HPM_P1;HPM_P2
2023/07/13 00:00:52;;;;;;;11.20;10.50;;;;;;;;;;5023060;28;20033;-66
2023/07/13 00:03:18;;;;;;;10.65;9.95;;;;;;;;;;5015121;28;20054;-67
2023/07/13 00:05:43;;;;;;;10.57;9.98;;;;;;;;;;5015087;28;20519;-67
2023/07/13 00:08:09;;;;;;;11.80;10.88;;;;;;;;;;5018416;28;20037;-66
2023/07/13 00:10:39;;;;;;;12.30;11.57;;;;;;;;;;5015839;28;20037;-66
2023/07/13 00:13:04;;;;;;;10.20;9.60;;;;;;;;;;5016758;28;20061;-66
2023/07/13 00:15:31;;;;;;;10.75;10.05;;;;;;;;;;5015073;28;20052;-73
2023/07/13 00:17:57;;;;;;;10.57;9.95;;;;;;;;;;5016342;28;20450;-73
2023/07/13 00:20:24;;;;;;;12.15;11.38;;;;;;;;;;5015250;28;20049;-73
2023/07/13 00:22:53;;;;;;;12.10;11.30;;;;;;;;;;5017424;28;20116;-73
2023/07/13 00:25:19;;;;;;;10.38;9.77;;;;;;;;;;5017386;28;20030;-73
2023/07/13 00:27:48;;;;;;;11.50;10.80;;;;;;;;;;5016419;28;20137;-73
2023/07/13 00:30:13;;;;;;;12.38;11.65;;;;;;;;;;5014687;28;20052;-73
2023/07/13 00:32:39;;;;;;;12.15;11.45;;;;;;;;;;5015827;28;20696;-73
2023/07/13 00:35:04;;;;;;;14.07;12.90;;;;;;;;;;5017494;28;20432;-73
2023/07/13 00:37:30;;;;;;;12.52;11.82;;;;;;;;;;5012586;28;20100;-73
2023/07/13 00:39:55;;;;;;;13.10;12.30;;;;;;;;;;5016711;28;20113;-73
2023/07/13 00:42:21;;;;;;;15.57;12.30;;;;;;;;;;5014014;28;20061;-73
2023/07/13 00:45:05;;;;;;;14.15;12.85;;;;;;;;;;5015238;28;20036;-73
2023/07/13 00:47:31;;;;;;;13.18;12.38;;;;;;;;;;5015698;28;20033;-73
2023/07/13 00:49:56;;;;;;;12.48;11.77;;;;;;;;;;5015389;28;20476;-73
2023/07/13 00:52:22;;;;;;;13.20;12.40;;;;;;;;;;5015097;28;20052;-73
2023/07/13 00:54:48;;;;;;;13.50;12.65;;;;;;;;;;5010596;28;20036;-72
2023/07/13 00:57:17;;;;;;;14.93;13.93;;;;;;;;;;5015429;28;20057;-72
2023/07/13 00:59:47;;;;;;;12.48;11.77;;;;;;;;;;5015005;28;20079;-72
2023/07/13 01:02:12;;;;;;;13.63;12.83;;;;;;;;;;5016110;28;20108;-72
2023/07/13 01:04:38;;;;;;;13.18;12.38;;;;;;;;;;5016476;28;20038;-72
2023/07/13 01:07:05;;;;;;;12.55;11.82;;;;;;;;;;5015074;28;20061;-72
2023/07/13 01:09:31;;;;;;;12.93;12.13;;;;;;;;;;5013012;28;20116;-72
2023/07/13 01:11:56;;;;;;;13.00;12.20;;;;;;;;;;5012298;28;20196;-73
2023/07/13 01:14:22;;;;;;;12.77;11.30;;;;;;;;;;5013979;28;20029;-72
2023/07/13 01:16:48;;;;;;;11.32;10.63;;;;;;;;;;5013648;28;20574;-72
2023/07/13 01:19:35;;;;;;;11.38;10.68;;;;;;;;;;5014074;28;20464;-72
2023/07/13 01:22:08;;;;;;;11.02;10.35;;;;;;;;;;5011466;28;20072;-73
2023/07/13 01:24:37;;;;;;;11.48;10.77;;;;;;;;;;5016041;28;20053;-72
2023/07/13 01:27:05;;;;;;;11.65;10.95;;;;;;;;;;5017914;28;20046;-73
2023/07/13 01:29:33;;;;;;;11.50;10.80;;;;;;;;;;5016298;28;20409;-73
2023/07/13 01:31:59;;;;;;;11.60;10.90;;;;;;;;;;5015345;28;20068;-73
2023/07/13 01:34:26;;;;;;;12.65;11.90;;;;;;;;;;5014303;28;20068;-73
2023/07/13 01:36:53;;;;;;;12.90;12.15;;;;;;;;;;5017030;28;20058;-73
2023/07/13 01:39:20;;;;;;;14.00;13.20;;;;;;;;;;5014354;28;20497;-73
2023/07/13 01:41:45;;;;;;;14.45;13.65;;;;;;;;;;5016234;28;20138;-73
2023/07/13 01:44:11;;;;;;;15.85;14.95;;;;;;;;;;5012720;28;20435;-72
2023/07/13 01:46:36;;;;;;;15.52;14.63;;;;;;;;;;5012630;28;20042;-72
2023/07/13 01:49:02;;;;;;;15.32;14.43;;;;;;;;;;5017100;28;20079;-73
2023/07/13 01:51:27;;;;;;;15.07;14.20;;;;;;;;;;5017241;28;20580;-73
2023/07/13 01:53:52;;;;;;;18.00;17.00;;;;;;;;;;5016112;28;20041;-73
2023/07/13 01:56:18;;;;;;;16.23;15.13;;;;;;;;;;5013407;28;20140;-73
2023/07/13 01:58:45;;;;;;;17.65;16.65;;;;;;;;;;5012219;28;20065;-73
2023/07/13 02:01:10;;;;;;;19.67;18.58;;;;;;;;;;5012614;28;20333;-73
2023/07/13 02:03:35;;;;;;;21.33;20.17;;;;;;;;;;5012735;28;20033;-72
2023/07/13 02:06:01;;;;;;;27.23;25.77;;;;;;;;;;5019023;28;20041;-73
2023/07/13 02:08:26;;;;;;;27.30;25.80;;;;;;;;;;5015583;28;20087;-72
2023/07/13 02:10:51;;;;;;;29.70;28.15;;;;;;;;;;5018278;28;20480;-72
2023/07/13 02:13:17;;;;;;;34.08;32.28;;;;;;;;;;5018415;28;20044;-73
2023/07/13 02:15:42;;;;;;;37.22;35.33;;;;;;;;;;5018353;28;20204;-66
2023/07/13 02:18:07;;;;;;;43.17;40.97;;;;;;;;;;5016393;28;20496;-66
2023/07/13 02:20:33;;;;;;;39.67;37.60;;;;;;;;;;5017263;28;20407;-66
2023/07/13 02:22:58;;;;;;;42.20;40.05;;;;;;;;;;5016524;28;20148;-66
2023/07/13 02:25:25;;;;;;;45.35;42.90;;;;;;;;;;5020677;28;20037;-66
2023/07/13 02:27:50;;;;;;;41.15;39.03;;;;;;;;;;5013976;28;20062;-66
2023/07/13 02:30:15;;;;;;;45.08;42.72;;;;;;;;;;5017150;28;20041;-65
2023/07/13 02:32:41;;;;;;;45.28;42.95;;;;;;;;;;5016590;28;20115;-65
2023/07/13 02:35:06;;;;;;;55.60;52.80;;;;;;;;;;5022260;28;20033;-65
2023/07/13 02:37:32;;;;;;;57.38;54.45;;;;;;;;;;5016376;28;20036;-73
2023/07/13 02:39:57;;;;;;;55.45;52.65;;;;;;;;;;5020940;28;20446;-73
2023/07/13 02:42:22;;;;;;;52.47;49.83;;;;;;;;;;5014967;28;20069;-73
2023/07/13 02:44:49;;;;;;;61.08;58.03;;;;;;;;;;5017934;28;20029;-73
2023/07/13 02:47:14;;;;;;;56.40;53.35;;;;;;;;;;5014672;28;20052;-66
2023/07/13 02:49:40;;;;;;;70.65;67.13;;;;;;;;;;5016038;28;20334;-66
2023/07/13 02:52:06;;;;;;;68.15;64.72;;;;;;;;;;5016093;28;20034;-66
2023/07/13 02:54:31;;;;;;;76.25;72.43;;;;;;;;;;5015861;28;20068;-66
2023/07/13 02:56:57;;;;;;;75.75;71.95;;;;;;;;;;5034850;28;20621;-65
2023/07/13 02:59:22;;;;;;;84.65;80.22;;;;;;;;;;5018400;28;20100;-66
2023/07/13 03:01:47;;;;;;;76.88;72.97;;;;;;;;;;5015882;28;20103;-66
2023/07/13 03:04:13;;;;;;;86.15;81.85;;;;;;;;;;5017175;28;20040;-66
2023/07/13 03:06:38;;;;;;;93.93;89.25;;;;;;;;;;5016368;28;20526;-65
2023/07/13 03:09:03;;;;;;;88.60;84.07;;;;;;;;;;5017036;28;20029;-66
2023/07/13 03:11:29;;;;;;;90.28;85.78;;;;;;;;;;5014288;28;20432;-66
2023/07/13 03:13:55;;;;;;;95.70;90.80;;;;;;;;;;5016244;28;20051;-66
2023/07/13 03:16:21;;;;;;;73.85;70.18;;;;;;;;;;5016336;28;20095;-66
2023/07/13 03:18:47;;;;;;;93.72;89.00;;;;;;;;;;5017182;28;20029;-66
2023/07/13 03:21:12;;;;;;;74.65;70.85;;;;;;;;;;5016276;28;20041;-66
2023/07/13 03:23:38;;;;;;;82.78;78.40;;;;;;;;;;5017705;28;20044;-66
2023/07/13 03:26:18;;;;;;;103.80;98.53;;;;;;;;;;5015456;28;20033;-66
2023/07/13 03:28:44;;;;;;;97.55;92.70;;;;;;;;;;5014507;28;20437;-66
2023/07/13 03:31:13;;;;;;;106.93;101.60;;;;;;;;;;5017098;28;20065;-66
2023/07/13 03:33:39;;;;;;;88.55;84.00;;;;;;;;;;5017649;28;20092;-66
2023/07/13 03:36:05;;;;;;;110.03;104.47;;;;;;;;;;5014862;28;20037;-66
2023/07/13 03:38:31;;;;;;;104.05;98.78;;;;;;;;;;5015954;28;20140;-66
2023/07/13 03:40:56;;;;;;;104.50;99.22;;;;;;;;;;5015409;28;20034;-66
2023/07/13 03:43:22;;;;;;;119.82;113.80;;;;;;;;;;5014350;28;20034;-66
2023/07/13 03:45:47;;;;;;;104.40;98.88;;;;;;;;;;5017702;28;20041;-66
2023/07/13 03:48:14;;;;;;;101.50;96.35;;;;;;;;;;5015502;28;20033;-66
2023/07/13 03:50:39;;;;;;;119.65;113.60;;;;;;;;;;5024127;28;20033;-66
2023/07/13 03:53:05;;;;;;;116.72;110.75;;;;;;;;;;5016619;28;20041;-66
2023/07/13 03:55:30;;;;;;;122.53;116.32;;;;;;;;;;5017477;28;20095;-66
2023/07/13 03:58:21;;;;;;;124.97;118.68;;;;;;;;;;5013667;28;20408;-66
2023/07/13 04:00:47;;;;;;;;;;;;;;;;;;5018173;28;20466;-66
2023/07/13 04:03:12;;;;;;;104.43;99.20;;;;;;;;;;5017006;28;19922;-66
2023/07/13 04:05:40;;;;;;;127.50;121.07;;;;;;;;;;5014782;28;20203;-66
2023/07/13 04:08:05;;;;;;;136.82;129.90;;;;;;;;;;5015786;28;20042;-66
2023/07/13 04:10:31;;;;;;;144.80;137.48;;;;;;;;;;5015339;28;20119;-66
2023/07/13 04:12:56;;;;;;;143.15;135.90;;;;;;;;;;5016752;28;20025;-74
2023/07/13 04:15:21;;;;;;;141.50;134.40;;;;;;;;;;5013504;28;20048;-74
2023/07/13 04:17:47;;;;;;;151.13;142.13;;;;;;;;;;5017047;28;20048;-66
2023/07/13 04:20:12;;;;;;;153.57;145.73;;;;;;;;;;5016524;28;20056;-74
2023/07/13 04:22:37;;;;;;;154.40;146.73;;;;;;;;;;5016001;28;20041;-74
2023/07/13 04:25:05;;;;;;;158.73;150.82;;;;;;;;;;5017379;28;20037;-74
2023/07/13 04:27:30;;;;;;;167.55;158.82;;;;;;;;;;5016434;28;20168;-74
2023/07/13 04:29:55;;;;;;;173.00;164.32;;;;;;;;;;5016886;28;20125;-74
2023/07/13 04:32:21;;;;;;;171.07;162.10;;;;;;;;;;5013007;28;20184;-66
2023/07/13 04:34:46;;;;;;;170.45;161.93;;;;;;;;;;5012978;28;20060;-66
2023/07/13 04:37:11;;;;;;;161.02;153.02;;;;;;;;;;5016383;28;20037;-74
2023/07/13 04:39:37;;;;;;;176.00;167.23;;;;;;;;;;5014262;28;20100;-66
2023/07/13 04:42:03;;;;;;;172.05;163.55;;;;;;;;;;5017992;28;20026;-66
2023/07/13 04:44:29;;;;;;;153.45;145.77;;;;;;;;;;5013224;28;20168;-65
2023/07/13 04:46:54;;;;;;;180.25;171.25;;;;;;;;;;5017330;28;20120;-66
2023/07/13 04:49:20;;;;;;;164.45;156.30;;;;;;;;;;5010872;28;20094;-66
2023/07/13 04:51:45;;;;;;;167.77;159.48;;;;;;;;;;5015427;28;20026;-66
2023/07/13 04:54:10;;;;;;;105.28;99.95;;;;;;;;;;5013389;28;20486;-66
2023/07/13 04:56:36;;;;;;;86.30;82.00;;;;;;;;;;5011331;28;20045;-66
2023/07/13 04:59:01;;;;;;;98.70;93.78;;;;;;;;;;5014747;28;20068;-66
2023/07/13 05:01:27;;;;;;;52.10;49.45;;;;;;;;;;5019359;28;20033;-65
2023/07/13 05:03:52;;;;;;;72.82;69.18;;;;;;;;;;5024773;28;20514;-66
2023/07/13 05:06:18;;;;;;;74.25;70.40;;;;;;;;;;5016943;28;20129;-66
2023/07/13 05:08:43;;;;;;;59.30;56.35;;;;;;;;;;5014147;28;20061;-66
2023/07/13 05:11:08;;;;;;;53.95;51.20;;;;;;;;;;5015604;28;20124;-65
2023/07/13 05:13:34;;;;;;;45.90;43.55;;;;;;;;;;5013779;28;20640;-66
2023/07/13 05:16:02;;;;;;;50.78;48.17;;;;;;;;;;5013042;28;20044;-66
2023/07/13 05:18:28;;;;;;;43.15;40.95;;;;;;;;;;5016265;28;20041;-67
2023/07/13 05:21:03;;;;;;;40.53;38.47;;;;;;;;;;5012110;28;20707;-66
2023/07/13 05:23:29;;;;;;;48.90;46.35;;;;;;;;;;5015806;28;20054;-65
2023/07/13 05:25:55;;;;;;;52.75;50.10;;;;;;;;;;5015764;28;20051;-66
2023/07/13 05:28:21;;;;;;;34.58;32.78;;;;;;;;;;5001431;28;20025;-66
2023/07/13 05:30:47;;;;;;;29.67;28.15;;;;;;;;;;5015155;28;20037;-67
2023/07/13 05:33:13;;;;;;;15.93;15.02;;;;;;;;;;5014997;28;20036;-66
2023/07/13 05:35:38;;;;;;;10.77;10.07;;;;;;;;;;5013788;28;20212;-66
2023/07/13 05:38:03;;;;;;;11.07;10.10;;;;;;;;;;5016706;28;20037;-72
2023/07/13 05:40:29;;;;;;;11.07;10.38;;;;;;;;;;5019366;28;20037;-71
2023/07/13 05:42:54;;;;;;;11.05;10.35;;;;;;;;;;5017341;28;20037;-67
2023/07/13 05:45:19;;;;;;;9.90;9.30;;;;;;;;;;5020977;28;20038;-66
2023/07/13 05:47:45;;;;;;;12.13;10.98;;;;;;;;;;5021135;28;20029;-66
2023/07/13 05:50:10;;;;;;;11.82;11.13;;;;;;;;;;5020235;28;20044;-65
2023/07/13 05:52:35;;;;;;;13.05;11.63;;;;;;;;;;5019012;28;20029;-66
2023/07/13 05:55:01;;;;;;;11.52;10.82;;;;;;;;;;5018637;28;20025;-73
2023/07/13 05:57:26;;;;;;;13.02;12.23;;;;;;;;;;5023165;28;20037;-72
2023/07/13 05:59:51;;;;;;;12.93;12.18;;;;;;;;;;5022544;28;20982;-71
2023/07/13 06:02:16;;;;;;;14.35;12.93;;;;;;;;;;5022503;28;20037;-71
2023/07/13 06:04:42;;;;;;;12.88;12.13;;;;;;;;;;5019437;28;20030;-67
2023/07/13 06:07:07;;;;;;;14.18;13.15;;;;;;;;;;5018968;28;20110;-74
2023/07/13 06:09:32;;;;;;;12.18;11.48;;;;;;;;;;5018321;28;20053;-73
2023/07/13 06:11:58;;;;;;;15.25;14.25;;;;;;;;;;5019858;28;20048;-73
2023/07/13 06:14:23;;;;;;;16.08;15.18;;;;;;;;;;5017563;28;20025;-72
2023/07/13 06:16:49;;;;;;;12.35;11.65;;;;;;;;;;5017690;28;20080;-72
2023/07/13 06:19:14;;;;;;;18.52;17.42;;;;;;;;;;5018069;28;20391;-73
2023/07/13 06:21:39;;;;;;;16.63;15.73;;;;;;;;;;5018581;28;20034;-67
2023/07/13 06:24:05;;;;;;;18.00;16.52;;;;;;;;;;5019591;28;20120;-66
2023/07/13 06:26:31;;;;;;;15.65;14.75;;;;;;;;;;5018693;28;20571;-67
2023/07/13 06:28:57;;;;;;;17.35;16.33;;;;;;;;;;5016144;28;20029;-66
2023/07/13 06:31:22;;;;;;;14.48;13.68;;;;;;;;;;5020700;28;20052;-73
2023/07/13 06:33:47;;;;;;;15.65;14.65;;;;;;;;;;5018407;28;20044;-72
2023/07/13 06:36:13;;;;;;;16.00;15.07;;;;;;;;;;5015545;28;20046;-67
2023/07/13 06:38:38;;;;;;;13.63;12.82;;;;;;;;;;5013531;28;20033;-73
2023/07/13 06:41:05;;;;;;;18.95;17.85;;;;;;;;;;5015538;28;20042;-74
2023/07/13 06:43:31;;;;;;;16.95;16.02;;;;;;;;;;5017586;28;20382;-73
2023/07/13 06:45:57;;;;;;;19.00;17.92;;;;;;;;;;5023040;28;20025;-74
2023/07/13 06:48:22;;;;;;;17.17;16.23;;;;;;;;;;5016824;28;20788;-67
2023/07/13 06:50:50;;;;;;;18.65;17.60;;;;;;;;;;5018567;28;20460;-73
2023/07/13 06:53:15;;;;;;;22.67;21.48;;;;;;;;;;5017170;28;21069;-67
2023/07/13 06:55:43;;;;;;;23.02;21.80;;;;;;;;;;5018392;28;20117;-66
2023/07/13 06:58:09;;;;;;;24.58;23.05;;;;;;;;;;5017657;28;20044;-67
2023/07/13 07:00:34;;;;;;;33.85;32.13;;;;;;;;;;5013547;28;20030;-67
2023/07/13 07:02:59;;;;;;;25.92;24.52;;;;;;;;;;5016027;28;20029;-67
2023/07/13 07:05:25;;;;;;;25.77;24.38;;;;;;;;;;5014102;28;20380;-67
2023/07/13 07:07:52;;;;;;;31.00;27.73;;;;;;;;;;5016306;28;20049;-71
2023/07/13 07:10:18;;;;;;;25.73;24.35;;;;;;;;;;5018225;28;20632;-71
2023/07/13 07:12:44;;;;;;;24.50;23.13;;;;;;;;;;5011773;28;20060;-71
2023/07/13 07:15:09;;;;;;;25.17;23.88;;;;;;;;;;5011805;28;20029;-68
2023/07/13 07:17:35;;;;;;;28.60;27.10;;;;;;;;;;5015875;28;20037;-71
2023/07/13 07:20:00;;;;;;;28.50;27.00;;;;;;;;;;5016952;28;20052;-66
2023/07/13 07:22:27;;;;;;;31.38;29.75;;;;;;;;;;5018593;28;20113;-71
2023/07/13 07:24:53;;;;;;;45.17;42.88;;;;;;;;;;5013076;28;20469;-69
2023/07/13 07:27:18;;;;;;;49.63;47.10;;;;;;;;;;5014310;28;20141;-72
2023/07/13 07:29:44;;;;;;;54.03;51.33;;;;;;;;;;5017915;28;20127;-71
2023/07/13 07:32:09;;;;;;;42.30;40.17;;;;;;;;;;5016616;28;20422;-71
2023/07/13 07:34:34;;;;;;;44.72;42.33;;;;;;;;;;5016283;28;20048;-70
2023/07/13 07:37:01;;;;;;;68.82;65.38;;;;;;;;;;5021737;28;20041;-66
2023/07/13 07:39:27;;;;;;;86.10;81.88;;;;;;;;;;5017912;28;20578;-67
2023/07/13 07:41:52;;;;;;;86.97;82.72;;;;;;;;;;5018516;28;20045;-67
2023/07/13 07:44:17;;;;;;;74.25;70.57;;;;;;;;;;5016578;28;20317;-67
2023/07/13 07:46:43;;;;;;;64.40;61.20;;;;;;;;;;5014295;28;20029;-66
2023/07/13 07:49:08;;;;;;;69.47;66.07;;;;;;;;;;5018880;28;20700;-71
2023/07/13 07:51:33;;;;;;;107.20;101.95;;;;;;;;;;5019735;28;20862;-67
2023/07/13 07:53:59;;;;;;;113.95;108.30;;;;;;;;;;5015883;28;20029;-67
2023/07/13 07:56:25;;;;;;;115.68;109.97;;;;;;;;;;5016322;28;20030;-67
2023/07/13 07:58:50;;;;;;;113.90;108.10;;;;;;;;;;5016066;28;20534;-72
2023/07/13 08:01:16;;;;;;;101.15;96.20;;;;;;;;;;5017960;28;20052;-67
2023/07/13 08:03:41;;;;;;;85.53;80.38;;;;;;;;;;5016374;28;20052;-67
2023/07/13 08:06:07;;;;;;;103.75;98.65;;;;;;;;;;5016076;28;20519;-67
2023/07/13 08:08:32;;;;;;;102.28;97.22;;;;;;;;;;5013686;28;20045;-67
2023/07/13 08:10:57;;;;;;;82.45;78.40;;;;;;;;;;5017466;28;20033;-73
2023/07/13 08:13:23;;;;;;;107.15;101.88;;;;;;;;;;5013739;28;20037;-73
2023/07/13 08:15:49;;;;;;;53.13;50.42;;;;;;;;;;5012820;28;20111;-73
2023/07/13 08:18:15;;;;;;;57.55;54.63;;;;;;;;;;5015288;28;20037;-73
2023/07/13 08:20:40;;;;;;;45.60;43.30;;;;;;;;;;5014083;28;20037;-73
2023/07/13 08:23:09;;;;;;;42.80;40.60;;;;;;;;;;5015571;28;20033;-73
2023/07/13 08:25:34;;;;;;;46.22;43.88;;;;;;;;;;5023316;28;20042;-67
2023/07/13 08:28:00;;;;;;;53.78;51.08;;;;;;;;;;5013956;28;20045;-67
2023/07/13 08:30:25;;;;;;;46.88;44.47;;;;;;;;;;5013091;28;20030;-67
2023/07/13 08:32:51;;;;;;;60.67;57.28;;;;;;;;;;5014974;28;20109;-67
2023/07/13 08:35:16;;;;;;;45.58;43.25;;;;;;;;;;5016264;28;20076;-66
2023/07/13 08:37:42;;;;;;;57.72;54.85;;;;;;;;;;5016808;28;20125;-67
2023/07/13 08:40:12;;;;;;;47.03;43.42;;;;;;;;;;5017360;28;20040;-72
2023/07/13 08:42:53;;;;;;;165.02;156.98;;;;;;;;;;5017444;28;20034;-70
2023/07/13 08:45:23;;;;;;;124.57;118.30;;;;;;;;;;5016695;28;20111;-64
2023/07/13 08:48:11;;;;;;;163.55;155.50;;;;;;;;;;5014193;28;20030;-66
2023/07/13 08:50:49;;;;;;;144.68;137.55;;;;;;;;;;5013566;28;20053;-65
2023/07/13 08:53:15;;;;;;;51.15;48.58;;;;;;;;;;5016274;28;20043;-71
2023/07/13 08:55:40;;;;;;;160.57;152.75;;;;;;;;;;5015680;28;20044;-70
2023/07/13 08:58:12;;;;;;;134.20;127.55;;;;;;;;;;5017807;28;20030;-71
2023/07/13 09:01:22;;;;;;;137.63;130.88;;;;;;;;;;5015446;28;20409;-70
2023/07/13 09:04:13;;;;;;;76.03;72.25;;;;;;;;;;5015736;28;20088;-66
2023/07/13 09:06:59;;;;;;;106.95;101.68;;;;;;;;;;5014088;28;20100;-66
2023/07/13 09:09:43;;;;;;;140.73;133.77;;;;;;;;;;5015183;28;20348;-64
2023/07/13 09:12:21;;;;;;;166.43;158.20;;;;;;;;;;5015706;28;20411;-72
2023/07/13 09:14:53;;;;;;;160.15;152.27;;;;;;;;;;5014262;28;20033;-71
2023/07/13 09:17:27;;;;;;;175.23;166.65;;;;;;;;;;5015163;28;20314;-71
2023/07/13 09:20:09;;;;;;;126.80;120.55;;;;;;;;;;5014463;28;20272;-65
2023/07/13 09:22:37;;;;;;;194.18;184.68;;;;;;;;;;5013741;28;20156;-65
2023/07/13 09:25:24;;;;;;;184.48;175.50;;;;;;;;;;5014660;28;20037;-70
2023/07/13 09:27:53;;;;;;;116.35;110.63;;;;;;;;;;5014543;28;20120;-71
2023/07/13 09:30:30;;;;;;;105.95;100.75;;;;;;;;;;5015061;28;20435;-70
2023/07/13 09:32:58;;;;;;;127.57;121.10;;;;;;;;;;5014404;28;20100;-71
2023/07/13 09:35:27;;;;;;;102.18;97.18;;;;;;;;;;5015314;28;20037;-65
2023/07/13 09:37:58;;;;;;;62.28;59.15;;;;;;;;;;5011549;28;20115;-67
2023/07/13 09:40:50;;;;;;;73.85;70.20;;;;;;;;;;5017556;28;20437;-66
2023/07/13 09:43:18;;;;;;;66.70;63.38;;;;;;;;;;5015616;28;20066;-66
2023/07/13 09:45:45;;;;;;;65.07;61.83;;;;;;;;;;5014283;28;20053;-70
2023/07/13 09:48:13;;;;;;;63.33;60.20;;;;;;;;;;5014174;28;20510;-66
2023/07/13 09:50:39;;;;;;;69.68;66.20;;;;;;;;;;5011965;28;20076;-64
2023/07/13 09:53:15;;;;;;;54.78;52.00;;;;;;;;;;5015890;28;20048;-67
2023/07/13 09:55:43;;;;;;;54.78;52.03;;;;;;;;;;5016632;28;20026;-70
2023/07/13 09:58:14;;;;;;;59.78;56.78;;;;;;;;;;5013593;28;20057;-72
2023/07/13 10:00:41;;;;;;;51.78;49.13;;;;;;;;;;5017122;28;20033;-71
2023/07/13 10:03:23;;;;;;;57.95;55.05;;;;;;;;;;5016862;28;20034;-70
2023/07/13 10:05:51;;;;;;;54.75;52.00;;;;;;;;;;5015787;28;20029;-72
2023/07/13 10:08:20;;;;;;;55.15;52.40;;;;;;;;;;5016852;28;20116;-70
2023/07/13 10:10:53;;;;;;;55.80;53.00;;;;;;;;;;5017432;28;20029;-71
2023/07/13 10:13:56;;;;;;;56.38;53.55;;;;;;;;;;5014987;28;20337;-70
2023/07/13 10:16:24;;;;;;;53.80;51.10;;;;;;;;;;5013864;28;20168;-65
2023/07/13 10:19:03;;;;;;;60.55;57.55;;;;;;;;;;5015488;28;20065;-65
2023/07/13 10:21:50;;;;;;;54.80;52.05;;;;;;;;;;5012412;28;20037;-66
2023/07/13 10:24:20;;;;;;;51.72;49.13;;;;;;;;;;5018795;28;20082;-71
2023/07/13 10:26:51;;;;;;;54.40;51.67;;;;;;;;;;5012548;28;20112;-66
2023/07/13 10:29:18;;;;;;;51.20;48.65;;;;;;;;;;5018066;28;20597;-66
2023/07/13 10:31:45;;;;;;;59.92;56.90;;;;;;;;;;5031353;28;20046;-66
2023/07/13 10:34:14;;;;;;;62.95;59.65;;;;;;;;;;5017782;28;20044;-72
2023/07/13 10:36:45;;;;;;;57.47;54.58;;;;;;;;;;5020445;28;20110;-71
2023/07/13 10:39:18;;;;;;;63.95;60.75;;;;;;;;;;5018287;28;20364;-65
2023/07/13 10:41:47;;;;;;;50.05;47.53;;;;;;;;;;5019149;28;20064;-66
2023/07/13 10:44:26;;;;;;;49.58;47.08;;;;;;;;;;5018013;28;20479;-71
2023/07/13 10:46:54;;;;;;;49.13;46.63;;;;;;;;;;5018746;28;20029;-72
2023/07/13 10:49:20;;;;;;;52.50;49.85;;;;;;;;;;5015202;28;20068;-72
2023/07/13 10:51:45;;;;;;;54.53;51.78;;;;;;;;;;5019252;28;20061;-71
2023/07/13 10:54:11;;;;;;;54.92;52.17;;;;;;;;;;5016090;28;20033;-66
2023/07/13 10:56:40;;;;;;;65.45;62.15;;;;;;;;;;5017236;28;20033;-67
2023/07/13 10:59:08;;;;;;;55.65;52.88;;;;;;;;;;5015776;28;20048;-66
2023/07/13 11:02:00;;;;;;;51.38;48.78;;;;;;;;;;5016681;28;20805;-66
2023/07/13 11:04:29;;;;;;;43.88;41.60;;;;;;;;;;5006827;28;20065;-66
2023/07/13 11:07:09;;;;;;;58.28;55.38;;;;;;;;;;5016899;28;20184;-65
2023/07/13 11:09:39;;;;;;;52.40;49.78;;;;;;;;;;5016307;28;20114;-70
2023/07/13 11:12:31;;;;;;;36.58;34.67;;;;;;;;;;5015393;28;20457;-71
2023/07/13 11:14:57;;;;;;;49.60;47.10;;;;;;;;;;5014588;28;20038;-72
2023/07/13 11:17:32;;;;;;;36.03;34.17;;;;;;;;;;5015606;28;20049;-71
2023/07/13 11:20:12;;;;;;;34.65;32.88;;;;;;;;;;5017854;28;20040;-71
2023/07/13 11:22:43;;;;;;;26.08;24.67;;;;;;;;;;5015968;28;20059;-65
2023/07/13 11:25:26;;;;;;;26.90;25.50;;;;;;;;;;5016688;28;20048;-66
2023/07/13 11:28:03;;;;;;;33.22;31.50;;;;;;;;;;5020114;28;20414;-66
2023/07/13 11:30:29;;;;;;;25.52;24.17;;;;;;;;;;5017274;28;20073;-65
2023/07/13 11:33:26;;;;;;;23.05;21.85;;;;;;;;;;5015759;28;20057;-66
2023/07/13 11:36:04;;;;;;;27.15;25.65;;;;;;;;;;5017197;28;20119;-71
2023/07/13 11:38:35;;;;;;;29.05;27.55;;;;;;;;;;5016182;28;20489;-66
2023/07/13 11:41:05;;;;;;;27.02;24.77;;;;;;;;;;5012931;28;20040;-65
2023/07/13 11:43:33;;;;;;;34.97;33.17;;;;;;;;;;5018543;28;20075;-71
2023/07/13 11:46:11;;;;;;;26.73;25.33;;;;;;;;;;5014254;28;20542;-71
2023/07/13 11:48:37;;;;;;;26.77;25.38;;;;;;;;;;5016696;28;20049;-69
2023/07/13 11:51:05;;;;;;;24.25;22.95;;;;;;;;;;5015246;28;20471;-66
2023/07/13 11:53:51;;;;;;;23.92;22.63;;;;;;;;;;5015343;28;20026;-68
2023/07/13 11:56:16;;;;;;;25.65;24.27;;;;;;;;;;5019692;28;20045;-70
2023/07/13 11:58:42;;;;;;;25.02;23.70;;;;;;;;;;5016611;28;20033;-74
2023/07/13 12:01:18;;;;;;;29.45;27.95;;;;;;;;;;5019546;28;20034;-73
2023/07/13 12:03:45;;;;;;;27.92;26.48;;;;;;;;;;5020275;28;20476;-69
2023/07/13 12:06:25;;;;;;;25.35;24.05;;;;;;;;;;5017622;28;20069;-67
2023/07/13 12:08:50;;;;;;;26.40;25.00;;;;;;;;;;5016535;28;20061;-67
2023/07/13 12:11:17;;;;;;;25.80;24.42;;;;;;;;;;5015243;28;20080;-65
2023/07/13 12:13:44;;;;;;;26.90;25.50;;;;;;;;;;5015257;28;20064;-66
2023/07/13 12:16:16;;;;;;;24.00;22.70;;;;;;;;;;5015577;28;20049;-69
2023/07/13 12:18:47;;;;;;;25.42;24.13;;;;;;;;;;5033073;28;20092;-69
2023/07/13 12:21:17;;;;;;;25.10;23.70;;;;;;;;;;5015825;28;20042;-68
2023/07/13 12:23:44;;;;;;;25.10;23.70;;;;;;;;;;5017305;28;20030;-68
2023/07/13 12:26:11;;;;;;;20.73;19.63;;;;;;;;;;5007022;28;20129;-68
2023/07/13 12:28:43;;;;;;;23.42;22.02;;;;;;;;;;5015880;28;21297;-70
2023/07/13 12:31:23;;;;;;;23.25;22.02;;;;;;;;;;5015472;28;20215;-74
2023/07/13 12:33:55;;;;;;;23.15;21.90;;;;;;;;;;5014757;28;20041;-69
2023/07/13 12:36:21;;;;;;;25.83;24.48;;;;;;;;;;5019064;28;20049;-69
2023/07/13 12:38:47;;;;;;;26.30;24.90;;;;;;;;;;5013842;28;20042;-68
2023/07/13 12:41:12;;;;;;;23.27;22.05;;;;;;;;;;5016316;28;20080;-69
2023/07/13 12:43:38;;;;;;;22.33;21.13;;;;;;;;;;5015926;28;20064;-73
2023/07/13 12:46:23;;;;;;;22.80;21.60;;;;;;;;;;5016403;28;20120;-73
2023/07/13 12:48:52;;;;;;;24.55;23.17;;;;;;;;;;5019045;28;20326;-69
2023/07/13 12:51:22;;;;;;;27.55;26.10;;;;;;;;;;5015819;28;20026;-69
2023/07/13 12:53:52;;;;;;;28.25;26.75;;;;;;;;;;5015568;28;20363;-74
2023/07/13 12:56:22;;;;;;;28.38;26.88;;;;;;;;;;5019301;28;20077;-72
2023/07/13 12:58:54;;;;;;;;;;;;;;;;;;5014126;28;20392;-73
2023/07/13 13:01:26;;;;;;;27.42;26.00;;;;;;;;;;5015740;28;19913;-74
2023/07/13 13:03:53;;;;;;;28.05;26.55;;;;;;;;;;5013802;28;20041;-73
2023/07/13 13:06:18;;;;;;;34.58;32.78;;;;;;;;;;5016799;28;20030;-72
2023/07/13 13:08:48;;;;;;;37.90;35.80;;;;;;;;;;5015468;28;20443;-73
2023/07/13 13:11:15;;;;;;;41.60;39.50;;;;;;;;;;5015140;28;20030;-72
2023/07/13 13:13:41;;;;;;;49.92;47.40;;;;;;;;;;5014458;28;20524;-74
2023/07/13 13:16:21;;;;;;;47.08;44.67;;;;;;;;;;5014038;28;20163;-73
2023/07/13 13:18:47;;;;;;;40.70;38.60;;;;;;;;;;5013414;28;20033;-68
2023/07/13 13:21:12;;;;;;;43.05;40.85;;;;;;;;;;5015468;28;20463;-73
2023/07/13 13:23:38;;;;;;;40.05;38.00;;;;;;;;;;5016666;28;20040;-69
2023/07/13 13:26:09;;;;;;;40.38;38.25;;;;;;;;;;5015204;28;20034;-73
2023/07/13 13:28:34;;;;;;;49.03;46.53;;;;;;;;;;5014490;28;20045;-74
2023/07/13 13:30:59;;;;;;;49.80;47.28;;;;;;;;;;5016444;28;20037;-75
2023/07/13 13:33:25;;;;;;;47.10;44.72;;;;;;;;;;5017395;28;20359;-74
2023/07/13 13:35:50;;;;;;;49.67;47.17;;;;;;;;;;5015098;28;20479;-69
2023/07/13 13:38:19;;;;;;;47.25;44.85;;;;;;;;;;5013798;28;20226;-74
2023/07/13 13:40:45;;;;;;;51.30;48.70;;;;;;;;;;5014902;28;20092;-74
2023/07/13 13:43:15;;;;;;;37.72;35.83;;;;;;;;;;5015159;28;20557;-72
2023/07/13 13:45:40;;;;;;;41.08;38.97;;;;;;;;;;5011663;28;20049;-74
2023/07/13 13:48:13;;;;;;;43.85;41.65;;;;;;;;;;5014603;28;20046;-74
2023/07/13 13:50:38;;;;;;;49.47;46.97;;;;;;;;;;5015670;28;20041;-74
2023/07/13 13:53:04;;;;;;;48.97;46.47;;;;;;;;;;5014897;28;20029;-74
2023/07/13 13:55:29;;;;;;;44.97;42.70;;;;;;;;;;5017618;28;20041;-73
2023/07/13 13:57:55;;;;;;;43.25;41.05;;;;;;;;;;5012901;28;20036;-73
2023/07/13 14:00:20;;;;;;;48.38;45.95;;;;;;;;;;5018700;28;20025;-74
2023/07/13 14:02:50;;;;;;;41.15;39.03;;;;;;;;;;5013654;28;20073;-73
2023/07/13 14:05:22;;;;;;;50.20;47.70;;;;;;;;;;5015772;28;20041;-74
2023/07/13 14:07:49;;;;;;;44.35;42.10;;;;;;;;;;5018535;28;20036;-74
2023/07/13 14:10:18;;;;;;;48.42;46.03;;;;;;;;;;5019886;28;20482;-74
2023/07/13 14:12:45;;;;;;;42.95;40.75;;;;;;;;;;5018465;28;20128;-72
2023/07/13 14:15:20;;;;;;;46.95;44.55;;;;;;;;;;5018623;28;20038;-74
2023/07/13 14:17:45;;;;;;;38.60;36.60;;;;;;;;;;5017216;28;20049;-68
2023/07/13 14:20:12;;;;;;;45.10;42.80;;;;;;;;;;5017619;28;20041;-68